sensor_id;sensor_type;location;lat;lon;timestamp;pressure;altitude;pressure_sealevel;temperature;humidity
39897;BME280;25567;48.276;14.242;2023-02-22T00:01:56;98503.91;;;3.02;97.19
39897;BME280;25567;48.276;14.242;2023-02-22T00:04:41;98496.13;;;2.93;97.35
39897;BME280;25567;48.276;14.242;2023-02-22T00:07:11;98497.59;;;2.96;97.13
39897;BME280;25567;48.276;14.242;2023-02-22T00:09:41;98503.25;;;2.99;97.15
39897;BME280;25567;48.276;14.242;2023-02-22T00:12:11;98505.88;;;2.99;97.47
39897;BME280;25567;48.276;14.242;2023-02-22T00:14:40;98509.38;;;2.92;97.99
39897;BME280;25567;48.276;14.242;2023-02-22T00:17:09;98503.44;;;2.98;98.00
39897;BME280;25567;48.276;14.242;2023-02-22T00:19:39;98505.78;;;2.93;97.75
39897;BME280;25567;48.276;14.242;2023-02-22T00:22:06;98506.44;;;2.95;97.52
39897;BME280;25567;48.276;14.242;2023-02-22T00:24:35;98505.28;;;2.74;97.04
39897;BME280;25567;48.276;14.242;2023-02-22T00:27:02;98513.72;;;2.84;97.00
39897;BME280;25567;48.276;14.242;2023-02-22T00:29:31;98503.25;;;2.84;97.20
39897;BME280;25567;48.276;14.242;2023-02-22T00:32:01;98505.06;;;2.84;95.94
39897;BME280;25567;48.276;14.242;2023-02-22T00:34:29;98507.91;;;2.74;96.19
39897;BME280;25567;48.276;14.242;2023-02-22T00:36:58;98504.19;;;2.69;96.96
39897;BME280;25567;48.276;14.242;2023-02-22T00:39:31;98508.53;;;2.61;95.78
39897;BME280;25567;48.276;14.242;2023-02-22T00:42:02;98506.00;;;2.45;96.12
39897;BME280;25567;48.276;14.242;2023-02-22T00:44:31;98508.63;;;2.45;95.78
39897;BME280;25567;48.276;14.242;2023-02-22T00:46:59;98506.28;;;2.50;96.86
39897;BME280;25567;48.276;14.242;2023-02-22T00:49:26;98503.16;;;2.55;96.95
39897;BME280;25567;48.276;14.242;2023-02-22T00:51:56;98502.81;;;2.58;97.41
39897;BME280;25567;48.276;14.242;2023-02-22T00:54:24;98493.59;;;2.62;97.38
39897;BME280;25567;48.276;14.242;2023-02-22T00:56:53;98495.13;;;2.56;97.53
39897;BME280;25567;48.276;14.242;2023-02-22T00:59:21;98494.00;;;2.50;97.15
39897;BME280;25567;48.276;14.242;2023-02-22T01:01:50;98494.06;;;2.42;96.01
39897;BME280;25567;48.276;14.242;2023-02-22T01:04:19;98495.47;;;2.30;96.29
39897;BME280;25567;48.276;14.242;2023-02-22T01:06:48;98496.47;;;2.29;96.34
39897;BME280;25567;48.276;14.242;2023-02-22T01:09:16;98497.56;;;2.34;96.53
39897;BME280;25567;48.276;14.242;2023-02-22T01:11:44;98494.81;;;2.28;96.69
39897;BME280;25567;48.276;14.242;2023-02-22T01:14:13;98495.38;;;2.23;96.10
39897;BME280;25567;48.276;14.242;2023-02-22T01:16:41;98492.31;;;2.11;96.89
39897;BME280;25567;48.276;14.242;2023-02-22T01:19:09;98483.63;;;2.19;97.31
39897;BME280;25567;48.276;14.242;2023-02-22T01:21:40;98481.44;;;2.23;97.27
39897;BME280;25567;48.276;14.242;2023-02-22T01:24:08;98485.50;;;2.25;97.37
39897;BME280;25567;48.276;14.242;2023-02-22T01:26:35;98483.06;;;2.24;98.69
39897;BME280;25567;48.276;14.242;2023-02-22T01:29:05;98489.47;;;2.21;98.09
39897;BME280;25567;48.276;14.242;2023-02-22T01:31:33;98479.72;;;2.15;98.78
39897;BME280;25567;48.276;14.242;2023-02-22T01:34:02;98483.13;;;2.15;98.58
39897;BME280;25567;48.276;14.242;2023-02-22T01:36:30;98476.81;;;2.02;96.85
39897;BME280;25567;48.276;14.242;2023-02-22T01:38:58;98480.47;;;2.00;96.91
39897;BME280;25567;48.276;14.242;2023-02-22T01:41:27;98475.25;;;1.92;97.24
39897;BME280;25567;48.276;14.242;2023-02-22T01:43:55;98473.22;;;2.03;97.22
39897;BME280;25567;48.276;14.242;2023-02-22T01:46:24;98474.22;;;2.02;97.42
39897;BME280;25567;48.276;14.242;2023-02-22T01:48:59;98470.63;;;2.03;98.00
39897;BME280;25567;48.276;14.242;2023-02-22T01:51:33;98474.44;;;1.92;98.30
39897;BME280;25567;48.276;14.242;2023-02-22T01:59:34;98462.75;;;1.79;98.39
39897;BME280;25567;48.276;14.242;2023-02-22T02:02:03;98471.88;;;1.83;97.51
39897;BME280;25567;48.276;14.242;2023-02-22T02:04:33;98462.09;;;1.77;96.99
39897;BME280;25567;48.276;14.242;2023-02-22T02:07:04;98467.19;;;1.71;96.72
39897;BME280;25567;48.276;14.242;2023-02-22T02:12:03;98466.97;;;1.49;98.33
39897;BME280;25567;48.276;14.242;2023-02-22T02:14:33;98464.09;;;1.36;98.07
39897;BME280;25567;48.276;14.242;2023-02-22T02:17:09;98465.38;;;1.40;98.48
39897;BME280;25567;48.276;14.242;2023-02-22T02:32:52;98453.56;;;1.52;98.67
39897;BME280;25567;48.276;14.242;2023-02-22T02:35:36;98453.38;;;1.54;100.00
39897;BME280;25567;48.276;14.242;2023-02-22T02:41:07;98450.94;;;1.52;98.62
39897;BME280;25567;48.276;14.242;2023-02-22T02:43:41;98443.09;;;1.52;97.90
39897;BME280;25567;48.276;14.242;2023-02-22T02:46:18;98444.25;;;1.49;97.89
39897;BME280;25567;48.276;14.242;2023-02-22T02:48:55;98437.09;;;1.43;98.49
39897;BME280;25567;48.276;14.242;2023-02-22T02:51:28;98437.44;;;1.40;99.40
39897;BME280;25567;48.276;14.242;2023-02-22T02:53:58;98435.78;;;1.47;98.95
39897;BME280;25567;48.276;14.242;2023-02-22T02:56:27;98441.50;;;1.43;98.60
39897;BME280;25567;48.276;14.242;2023-02-22T02:58:56;98439.38;;;1.46;99.04
39897;BME280;25567;48.276;14.242;2023-02-22T03:01:52;98439.03;;;1.49;99.00
39897;BME280;25567;48.276;14.242;2023-02-22T03:12:41;98435.16;;;1.37;99.69
39897;BME280;25567;48.276;14.242;2023-02-22T03:15:21;98431.41;;;1.40;99.54
39897;BME280;25567;48.276;14.242;2023-02-22T03:17:53;98429.28;;;1.35;99.42
39897;BME280;25567;48.276;14.242;2023-02-22T03:20:29;98433.88;;;1.33;99.02
39897;BME280;25567;48.276;14.242;2023-02-22T03:23:06;98432.06;;;1.33;99.31
39897;BME280;25567;48.276;14.242;2023-02-22T03:25:40;98432.91;;;1.34;99.86
39897;BME280;25567;48.276;14.242;2023-02-22T03:28:11;98431.94;;;1.27;99.40
39897;BME280;25567;48.276;14.242;2023-02-22T03:30:45;98432.63;;;1.12;98.53
39897;BME280;25567;48.276;14.242;2023-02-22T03:33:21;98435.59;;;1.09;98.15
39897;BME280;25567;48.276;14.242;2023-02-22T03:36:00;98429.22;;;0.95;99.04
39897;BME280;25567;48.276;14.242;2023-02-22T03:38:32;98428.25;;;0.96;98.71
39897;BME280;25567;48.276;14.242;2023-02-22T03:41:04;98427.63;;;0.86;99.72
39897;BME280;25567;48.276;14.242;2023-02-22T03:43:41;98424.00;;;0.95;100.00
39897;BME280;25567;48.276;14.242;2023-02-22T03:46:11;98427.94;;;0.99;100.00
39897;BME280;25567;48.276;14.242;2023-02-22T03:48:58;98426.78;;;1.02;100.00
39897;BME280;25567;48.276;14.242;2023-02-22T03:51:28;98425.47;;;1.06;100.00
39897;BME280;25567;48.276;14.242;2023-02-22T03:53:58;98432.00;;;1.10;100.00
39897;BME280;25567;48.276;14.242;2023-02-22T03:56:30;98430.34;;;1.09;100.00
39897;BME280;25567;48.276;14.242;2023-02-22T03:59:04;98427.09;;;1.07;100.00
39897;BME280;25567;48.276;14.242;2023-02-22T04:01:34;98426.63;;;1.04;100.00
39897;BME280;25567;48.276;14.242;2023-02-22T04:04:04;98424.84;;;0.96;100.00
39897;BME280;25567;48.276;14.242;2023-02-22T04:06:32;98426.94;;;1.00;100.00
39897;BME280;25567;48.276;14.242;2023-02-22T04:09:00;98422.22;;;1.04;100.00
39897;BME280;25567;48.276;14.242;2023-02-22T04:11:29;98426.31;;;0.98;100.00
39897;BME280;25567;48.276;14.242;2023-02-22T04:13:58;98422.53;;;0.93;100.00
39897;BME280;25567;48.276;14.242;2023-02-22T04:16:25;98419.44;;;0.97;100.00
39897;BME280;25567;48.276;14.242;2023-02-22T04:18:54;98418.66;;;0.97;100.00
39897;BME280;25567;48.276;14.242;2023-02-22T04:21:22;98419.13;;;0.92;100.00
39897;BME280;25567;48.276;14.242;2023-02-22T04:23:50;98416.53;;;0.92;100.00
39897;BME280;25567;48.276;14.242;2023-02-22T04:26:20;98408.06;;;0.90;99.97
39897;BME280;25567;48.276;14.242;2023-02-22T04:28:49;98411.31;;;0.84;98.69
39897;BME280;25567;48.276;14.242;2023-02-22T04:31:17;98412.78;;;0.87;99.44
39897;BME280;25567;48.276;14.242;2023-02-22T04:33:47;98406.25;;;0.91;100.00
39897;BME280;25567;48.276;14.242;2023-02-22T04:36:17;98401.50;;;0.86;99.95
39897;BME280;25567;48.276;14.242;2023-02-22T04:38:46;98407.72;;;0.93;100.00
39897;BME280;25567;48.276;14.242;2023-02-22T04:41:16;98402.84;;;0.90;100.00
39897;BME280;25567;48.276;14.242;2023-02-22T04:43:45;98399.25;;;0.83;99.75
39897;BME280;25567;48.276;14.242;2023-02-22T04:46:13;98393.22;;;0.82;99.86
39897;BME280;25567;48.276;14.242;2023-02-22T04:48:43;98395.50;;;0.77;100.00
39897;BME280;25567;48.276;14.242;2023-02-22T04:51:11;98387.81;;;0.84;99.75
39897;BME280;25567;48.276;14.242;2023-02-22T04:53:41;98396.97;;;0.80;99.56
39897;BME280;25567;48.276;14.242;2023-02-22T04:56:08;98392.38;;;0.82;100.00
39897;BME280;25567;48.276;14.242;2023-02-22T04:58:35;98388.97;;;0.81;100.00
39897;BME280;25567;48.276;14.242;2023-02-22T05:01:04;98395.00;;;0.82;100.00
39897;BME280;25567;48.276;14.242;2023-02-22T05:03:37;98393.22;;;0.82;99.93
39897;BME280;25567;48.276;14.242;2023-02-22T05:06:05;98390.59;;;0.82;99.90
39897;BME280;25567;48.276;14.242;2023-02-22T05:08:34;98387.16;;;0.82;100.00
39897;BME280;25567;48.276;14.242;2023-02-22T05:11:02;98393.69;;;0.86;100.00
39897;BME280;25567;48.276;14.242;2023-02-22T05:13:32;98390.78;;;0.81;99.82
39897;BME280;25567;48.276;14.242;2023-02-22T05:16:01;98393.03;;;0.84;99.63
39897;BME280;25567;48.276;14.242;2023-02-22T05:18:30;98386.06;;;0.68;99.14
39897;BME280;25567;48.276;14.242;2023-02-22T05:20:59;98382.16;;;0.64;98.75
39897;BME280;25567;48.276;14.242;2023-02-22T05:23:27;98381.53;;;0.45;98.74
39897;BME280;25567;48.276;14.242;2023-02-22T05:25:55;98382.31;;;0.54;99.19
39897;BME280;25567;48.276;14.242;2023-02-22T05:28:26;98381.00;;;0.58;99.04
39897;BME280;25567;48.276;14.242;2023-02-22T05:30:55;98383.47;;;0.52;99.67
39897;BME280;25567;48.276;14.242;2023-02-22T05:33:22;98385.25;;;0.59;99.99
39897;BME280;25567;48.276;14.242;2023-02-22T05:35:51;98377.28;;;0.53;100.00
39897;BME280;25567;48.276;14.242;2023-02-22T05:38:24;98370.78;;;0.32;100.00
39897;BME280;25567;48.276;14.242;2023-02-22T05:40:52;98376.00;;;0.24;100.00
39897;BME280;25567;48.276;14.242;2023-02-22T05:43:21;98381.72;;;0.27;100.00
39897;BME280;25567;48.276;14.242;2023-02-22T05:45:50;98379.59;;;0.31;100.00
39897;BME280;25567;48.276;14.242;2023-02-22T05:48:19;98372.72;;;0.38;100.00
39897;BME280;25567;48.276;14.242;2023-02-22T05:50:49;98375.81;;;0.42;100.00
39897;BME280;25567;48.276;14.242;2023-02-22T05:53:17;98379.91;;;0.44;100.00
39897;BME280;25567;48.276;14.242;2023-02-22T05:55:51;98383.97;;;0.47;100.00
39897;BME280;25567;48.276;14.242;2023-02-22T05:58:20;98382.16;;;0.47;100.00
39897;BME280;25567;48.276;14.242;2023-02-22T06:00:49;98378.75;;;0.47;100.00
39897;BME280;25567;48.276;14.242;2023-02-22T06:03:17;98385.09;;;0.53;100.00
39897;BME280;25567;48.276;14.242;2023-02-22T06:05:45;98388.56;;;0.53;100.00
39897;BME280;25567;48.276;14.242;2023-02-22T06:08:12;98379.91;;;0.44;100.00
39897;BME280;25567;48.276;14.242;2023-02-22T06:10:40;98388.38;;;0.30;100.00
39897;BME280;25567;48.276;14.242;2023-02-22T06:13:09;98382.84;;;0.33;100.00
39897;BME280;25567;48.276;14.242;2023-02-22T06:15:36;98379.41;;;0.41;100.00
39897;BME280;25567;48.276;14.242;2023-02-22T06:18:05;98376.97;;;0.39;100.00
39897;BME280;25567;48.276;14.242;2023-02-22T06:20:32;98384.97;;;0.38;100.00
39897;BME280;25567;48.276;14.242;2023-02-22T06:23:02;98385.13;;;0.44;100.00
39897;BME280;25567;48.276;14.242;2023-02-22T06:25:30;98379.41;;;0.49;100.00
39897;BME280;25567;48.276;14.242;2023-02-22T06:27:59;98387.91;;;0.43;100.00
39897;BME280;25567;48.276;14.242;2023-02-22T06:30:28;98386.75;;;0.45;100.00
39897;BME280;25567;48.276;14.242;2023-02-22T06:32:57;98387.88;;;0.51;100.00
39897;BME280;25567;48.276;14.242;2023-02-22T06:35:26;98388.38;;;0.55;100.00
39897;BME280;25567;48.276;14.242;2023-02-22T06:37:54;98389.84;;;0.32;100.00
39897;BME280;25567;48.276;14.242;2023-02-22T06:40:23;98395.25;;;0.23;100.00
39897;BME280;25567;48.276;14.242;2023-02-22T06:42:57;98402.75;;;0.26;100.00
39897;BME280;25567;48.276;14.242;2023-02-22T06:45:26;98400.47;;;0.31;100.00
39897;BME280;25567;48.276;14.242;2023-02-22T06:47:53;98400.44;;;0.47;100.00
39897;BME280;25567;48.276;14.242;2023-02-22T06:50:28;98400.28;;;0.57;100.00
39897;BME280;25567;48.276;14.242;2023-02-22T06:52:56;98403.69;;;0.58;100.00
39897;BME280;25567;48.276;14.242;2023-02-22T06:55:29;98400.28;;;0.57;100.00
39897;BME280;25567;48.276;14.242;2023-02-22T06:57:58;98407.44;;;0.55;100.00
39897;BME280;25567;48.276;14.242;2023-02-22T07:00:27;98408.75;;;0.59;100.00
39897;BME280;25567;48.276;14.242;2023-02-22T07:02:56;98408.44;;;0.62;100.00
39897;BME280;25567;48.276;14.242;2023-02-22T07:05:27;98412.66;;;0.63;100.00
39897;BME280;25567;48.276;14.242;2023-02-22T07:08:03;98407.44;;;0.72;100.00
39897;BME280;25567;48.276;14.242;2023-02-22T07:10:32;98405.44;;;0.82;100.00
39897;BME280;25567;48.276;14.242;2023-02-22T07:13:02;98410.31;;;0.93;100.00
39897;BME280;25567;48.276;14.242;2023-02-22T07:15:33;98407.81;;;1.08;100.00
39897;BME280;25567;48.276;14.242;2023-02-22T07:18:00;98408.94;;;1.14;100.00
39897;BME280;25567;48.276;14.242;2023-02-22T07:20:29;98399.31;;;1.14;100.00
39897;BME280;25567;48.276;14.242;2023-02-22T07:22:59;98397.19;;;1.18;100.00
39897;BME280;25567;48.276;14.242;2023-02-22T07:25:28;98398.94;;;1.26;100.00
39897;BME280;25567;48.276;14.242;2023-02-22T07:27:57;98393.84;;;1.32;100.00
39897;BME280;25567;48.276;14.242;2023-02-22T07:30:30;98391.53;;;1.38;100.00
39897;BME280;25567;48.276;14.242;2023-02-22T07:33:02;98393.97;;;1.47;100.00
39897;BME280;25567;48.276;14.242;2023-02-22T07:35:33;98394.72;;;1.56;100.00
39897;BME280;25567;48.276;14.242;2023-02-22T07:38:06;98390.56;;;1.70;100.00
39897;BME280;25567;48.276;14.242;2023-02-22T07:40:37;98390.31;;;1.80;100.00
39897;BME280;25567;48.276;14.242;2023-02-22T07:45:43;98377.16;;;1.96;100.00
39897;BME280;25567;48.276;14.242;2023-02-22T07:48:14;98372.66;;;2.05;100.00
39897;BME280;25567;48.276;14.242;2023-02-22T07:50:44;98369.63;;;2.16;100.00
39897;BME280;25567;48.276;14.242;2023-02-22T07:53:18;98364.13;;;2.26;100.00
39897;BME280;25567;48.276;14.242;2023-02-22T07:55:46;98364.72;;;2.37;100.00
39897;BME280;25567;48.276;14.242;2023-02-22T07:58:21;98364.72;;;2.52;100.00
39897;BME280;25567;48.276;14.242;2023-02-22T08:00:50;98360.16;;;2.69;100.00
39897;BME280;25567;48.276;14.242;2023-02-22T08:03:22;98359.13;;;2.99;100.00
39897;BME280;25567;48.276;14.242;2023-02-22T08:05:54;98354.59;;;3.23;100.00
39897;BME280;25567;48.276;14.242;2023-02-22T08:08:23;98359.28;;;3.43;100.00
39897;BME280;25567;48.276;14.242;2023-02-22T08:10:52;98342.31;;;3.60;100.00
39897;BME280;25567;48.276;14.242;2023-02-22T08:13:22;98348.94;;;3.78;100.00
39897;BME280;25567;48.276;14.242;2023-02-22T08:15:52;98353.94;;;3.94;100.00
39897;BME280;25567;48.276;14.242;2023-02-22T08:18:21;98346.88;;;4.16;100.00
39897;BME280;25567;48.276;14.242;2023-02-22T08:20:51;98341.13;;;4.34;100.00
39897;BME280;25567;48.276;14.242;2023-02-22T08:23:23;98340.47;;;4.54;100.00
39897;BME280;25567;48.276;14.242;2023-02-22T08:25:54;98343.84;;;4.76;100.00
39897;BME280;25567;48.276;14.242;2023-02-22T08:28:24;98343.31;;;4.94;100.00
39897;BME280;25567;48.276;14.242;2023-02-22T08:30:54;98341.78;;;5.07;100.00
39897;BME280;25567;48.276;14.242;2023-02-22T08:33:24;98344.50;;;5.27;100.00
39897;BME280;25567;48.276;14.242;2023-02-22T08:35:54;98341.28;;;5.38;100.00
39897;BME280;25567;48.276;14.242;2023-02-22T08:38:28;98345.38;;;5.61;100.00
39897;BME280;25567;48.276;14.242;2023-02-22T08:40:58;98338.75;;;5.72;100.00
39897;BME280;25567;48.276;14.242;2023-02-22T08:43:28;98351.31;;;5.90;100.00
39897;BME280;25567;48.276;14.242;2023-02-22T08:45:57;98348.34;;;6.13;100.00
39897;BME280;25567;48.276;14.242;2023-02-22T08:48:24;98354.63;;;6.25;100.00
39897;BME280;25567;48.276;14.242;2023-02-22T08:50:54;98350.75;;;6.34;100.00
39897;BME280;25567;48.276;14.242;2023-02-22T08:53:23;98364.13;;;6.40;100.00
39897;BME280;25567;48.276;14.242;2023-02-22T08:55:54;98357.41;;;6.64;100.00
39897;BME280;25567;48.276;14.242;2023-02-22T08:58:23;98353.16;;;6.70;100.00
39897;BME280;25567;48.276;14.242;2023-02-22T09:00:52;98354.34;;;6.74;100.00
39897;BME280;25567;48.276;14.242;2023-02-22T09:03:21;98353.13;;;6.76;100.00
39897;BME280;25567;48.276;14.242;2023-02-22T09:05:50;98349.09;;;6.80;100.00
39897;BME280;25567;48.276;14.242;2023-02-22T09:08:19;98345.03;;;6.84;100.00
39897;BME280;25567;48.276;14.242;2023-02-22T09:10:48;98350.66;;;6.88;100.00
39897;BME280;25567;48.276;14.242;2023-02-22T09:13:17;98340.97;;;6.82;100.00
39897;BME280;25567;48.276;14.242;2023-02-22T09:15:45;98338.72;;;6.85;100.00
39897;BME280;25567;48.276;14.242;2023-02-22T09:18:14;98333.81;;;6.96;100.00
39897;BME280;25567;48.276;14.242;2023-02-22T09:20:45;98328.91;;;7.13;100.00
39897;BME280;25567;48.276;14.242;2023-02-22T09:23:14;98328.22;;;7.31;100.00
39897;BME280;25567;48.276;14.242;2023-02-22T09:25:43;98326.09;;;7.46;100.00
39897;BME280;25567;48.276;14.242;2023-02-22T09:28:11;98325.41;;;7.64;99.15
39897;BME280;25567;48.276;14.242;2023-02-22T09:30:40;98317.00;;;7.74;98.35
39897;BME280;25567;48.276;14.242;2023-02-22T09:33:12;98316.16;;;7.80;97.70
39897;BME280;25567;48.276;14.242;2023-02-22T09:35:44;98310.59;;;7.89;97.46
39897;BME280;25567;48.276;14.242;2023-02-22T09:38:15;98309.00;;;8.13;96.38
39897;BME280;25567;48.276;14.242;2023-02-22T09:40:48;98298.63;;;8.37;95.09
39897;BME280;25567;48.276;14.242;2023-02-22T09:43:26;98298.34;;;8.51;94.51
39897;BME280;25567;48.276;14.242;2023-02-22T09:46:21;98300.41;;;8.68;93.82
39897;BME280;25567;48.276;14.242;2023-02-22T09:49:14;98295.88;;;9.06;92.50
39897;BME280;25567;48.276;14.242;2023-02-22T09:54:39;98287.31;;;9.41;90.87
39897;BME280;25567;48.276;14.242;2023-02-22T09:57:17;98281.28;;;9.33;89.29
39897;BME280;25567;48.276;14.242;2023-02-22T10:00:00;98276.16;;;9.50;89.48
39897;BME280;25567;48.276;14.242;2023-02-22T10:02:50;98273.56;;;9.62;89.12
39897;BME280;25567;48.276;14.242;2023-02-22T10:05:33;98267.41;;;9.92;88.16
39897;BME280;25567;48.276;14.242;2023-02-22T10:08:10;98269.03;;;10.17;86.60
39897;BME280;25567;48.276;14.242;2023-02-22T10:10:42;98266.03;;;10.49;85.74
39897;BME280;25567;48.276;14.242;2023-02-22T10:13:31;98258.03;;;10.84;84.25
39897;BME280;25567;48.276;14.242;2023-02-22T10:16:19;98249.50;;;10.82;82.81
39897;BME280;25567;48.276;14.242;2023-02-22T10:21:55;98252.59;;;11.49;80.16
39897;BME280;25567;48.276;14.242;2023-02-22T10:27:19;98233.06;;;12.23;75.46
39897;BME280;25567;48.276;14.242;2023-02-22T10:29:53;98233.88;;;12.46;74.77
39897;BME280;25567;48.276;14.242;2023-02-22T10:32:28;98228.81;;;12.66;72.83
39897;BME280;25567;48.276;14.242;2023-02-22T10:34:59;98222.13;;;12.86;72.66
39897;BME280;25567;48.276;14.242;2023-02-22T10:37:33;98223.50;;;12.89;71.52
39897;BME280;25567;48.276;14.242;2023-02-22T10:40:11;98226.28;;;12.77;71.40
39897;BME280;25567;48.276;14.242;2023-02-22T10:42:40;98215.75;;;12.87;71.38
39897;BME280;25567;48.276;14.242;2023-02-22T10:45:27;98221.22;;;12.75;71.55
39897;BME280;25567;48.276;14.242;2023-02-22T10:47:59;98212.53;;;12.85;71.97
39897;BME280;25567;48.276;14.242;2023-02-22T10:50:32;98209.72;;;12.70;72.19
39897;BME280;25567;48.276;14.242;2023-02-22T10:53:01;98206.66;;;12.61;71.88
39897;BME280;25567;48.276;14.242;2023-02-22T10:55:28;98198.75;;;12.44;72.16
39897;BME280;25567;48.276;14.242;2023-02-22T10:58:01;98198.38;;;12.35;72.56
39897;BME280;25567;48.276;14.242;2023-02-22T11:00:33;98192.88;;;12.42;72.43
39897;BME280;25567;48.276;14.242;2023-02-22T11:03:19;98187.66;;;12.96;72.40
39897;BME280;25567;48.276;14.242;2023-02-22T11:05:49;98187.56;;;13.41;69.59
39897;BME280;25567;48.276;14.242;2023-02-22T11:10:51;98175.66;;;13.86;66.66
39897;BME280;25567;48.276;14.242;2023-02-22T11:13:31;98166.34;;;13.94;67.88
39897;BME280;25567;48.276;14.242;2023-02-22T11:16:03;98159.22;;;13.99;67.28
39897;BME280;25567;48.276;14.242;2023-02-22T11:18:43;98159.41;;;13.88;67.44
39897;BME280;25567;48.276;14.242;2023-02-22T11:21:12;98157.09;;;13.64;67.06
39897;BME280;25567;48.276;14.242;2023-02-22T11:23:49;98153.91;;;13.67;68.20
39897;BME280;25567;48.276;14.242;2023-02-22T11:26:27;98144.72;;;13.85;68.48
39897;BME280;25567;48.276;14.242;2023-02-22T11:28:56;98136.03;;;14.05;67.50
39897;BME280;25567;48.276;14.242;2023-02-22T11:31:27;98136.38;;;14.24;66.55
39897;BME280;25567;48.276;14.242;2023-02-22T11:33:57;98134.84;;;14.39;65.68
39897;BME280;25567;48.276;14.242;2023-02-22T11:36:37;98131.06;;;14.29;65.88
39897;BME280;25567;48.276;14.242;2023-02-22T11:41:53;98118.34;;;14.52;64.39
39897;BME280;25567;48.276;14.242;2023-02-22T11:44:27;98122.09;;;14.56;63.46
39897;BME280;25567;48.276;14.242;2023-02-22T11:46:59;98114.44;;;14.70;63.34
39897;BME280;25567;48.276;14.242;2023-02-22T11:49:35;98109.63;;;14.67;63.80
39897;BME280;25567;48.276;14.242;2023-02-22T11:52:26;98111.13;;;14.47;64.67
39897;BME280;25567;48.276;14.242;2023-02-22T11:55:20;98101.19;;;14.27;65.05
39897;BME280;25567;48.276;14.242;2023-02-22T12:01:03;98099.03;;;14.14;65.60
39897;BME280;25567;48.276;14.242;2023-02-22T12:03:55;98091.31;;;14.28;65.19
39897;BME280;25567;48.276;14.242;2023-02-22T12:09:36;98084.53;;;14.73;63.19
39897;BME280;25567;48.276;14.242;2023-02-22T12:20:30;98067.88;;;14.30;64.77
39897;BME280;25567;48.276;14.242;2023-02-22T12:23:20;98065.00;;;14.47;65.25
39897;BME280;25567;48.276;14.242;2023-02-22T12:25:58;98060.25;;;14.64;64.79
39897;BME280;25567;48.276;14.242;2023-02-22T12:28:33;98050.63;;;14.84;63.76
39897;BME280;25567;48.276;14.242;2023-02-22T12:33:58;98054.13;;;14.95;63.20
39897;BME280;25567;48.276;14.242;2023-02-22T12:36:34;98041.84;;;14.99;62.54
39897;BME280;25567;48.276;14.242;2023-02-22T12:41:54;98040.75;;;15.10;63.99
39897;BME280;25567;48.276;14.242;2023-02-22T12:44:40;98040.50;;;15.22;63.07
39897;BME280;25567;48.276;14.242;2023-02-22T12:47:15;98035.69;;;15.24;63.47
39897;BME280;25567;48.276;14.242;2023-02-22T12:49:58;98027.41;;;15.31;62.33
39897;BME280;25567;48.276;14.242;2023-02-22T12:52:50;98034.59;;;15.35;62.72
39897;BME280;25567;48.276;14.242;2023-02-22T12:55:24;98028.16;;;15.47;62.12
39897;BME280;25567;48.276;14.242;2023-02-22T12:58:03;98020.94;;;15.42;62.13
39897;BME280;25567;48.276;14.242;2023-02-22T13:00:38;98021.22;;;15.46;61.78
39897;BME280;25567;48.276;14.242;2023-02-22T13:06:17;98013.97;;;15.57;63.42
39897;BME280;25567;48.276;14.242;2023-02-22T13:11:48;98008.59;;;15.62;61.96
39897;BME280;25567;48.276;14.242;2023-02-22T13:27:44;98003.03;;;15.53;62.06
39897;BME280;25567;48.276;14.242;2023-02-22T13:30:20;97999.25;;;15.64;61.31
39897;BME280;25567;48.276;14.242;2023-02-22T13:47:15;97986.06;;;15.89;60.76
39897;BME280;25567;48.276;14.242;2023-02-22T13:52:55;97976.22;;;15.74;60.49
39897;BME280;25567;48.276;14.242;2023-02-22T13:55:31;97976.00;;;15.65;61.97
39897;BME280;25567;48.276;14.242;2023-02-22T13:58:06;97970.91;;;15.63;61.20
39897;BME280;25567;48.276;14.242;2023-02-22T14:00:57;97969.59;;;15.61;60.93
39897;BME280;25567;48.276;14.242;2023-02-22T14:03:30;97970.16;;;15.47;61.39
39897;BME280;25567;48.276;14.242;2023-02-22T14:06:04;97962.44;;;15.46;61.46
39897;BME280;25567;48.276;14.242;2023-02-22T14:11:02;97960.19;;;15.74;60.46
39897;BME280;25567;48.276;14.242;2023-02-22T14:19:03;97952.44;;;15.82;59.92
39897;BME280;25567;48.276;14.242;2023-02-22T14:21:33;97960.72;;;15.81;59.59
39897;BME280;25567;48.276;14.242;2023-02-22T14:24:16;97947.38;;;15.81;59.01
39897;BME280;25567;48.276;14.242;2023-02-22T14:26:59;97950.03;;;15.81;58.76
39897;BME280;25567;48.276;14.242;2023-02-22T14:29:30;97946.78;;;15.79;59.06
39897;BME280;25567;48.276;14.242;2023-02-22T14:32:03;97948.94;;;15.77;59.17
39897;BME280;25567;48.276;14.242;2023-02-22T14:34:43;97945.00;;;15.64;60.63
39897;BME280;25567;48.276;14.242;2023-02-22T14:37:15;97940.25;;;15.50;61.28
39897;BME280;25567;48.276;14.242;2023-02-22T14:39:57;97941.03;;;15.46;60.75
39897;BME280;25567;48.276;14.242;2023-02-22T14:42:32;97935.13;;;15.54;60.96
39897;BME280;25567;48.276;14.242;2023-02-22T14:45:16;97930.31;;;15.61;60.89
39897;BME280;25567;48.276;14.242;2023-02-22T14:47:55;97935.06;;;15.70;60.32
39897;BME280;25567;48.276;14.242;2023-02-22T14:50:53;97934.75;;;15.87;60.24
39897;BME280;25567;48.276;14.242;2023-02-22T14:53:40;97931.81;;;15.88;60.21
39897;BME280;25567;48.276;14.242;2023-02-22T14:56:20;97933.06;;;16.06;59.12
39897;BME280;25567;48.276;14.242;2023-02-22T14:58:57;97930.06;;;16.13;58.46
39897;BME280;25567;48.276;14.242;2023-02-22T15:01:27;97934.78;;;16.26;58.05
39897;BME280;25567;48.276;14.242;2023-02-22T15:04:30;97932.47;;;16.14;58.94
39897;BME280;25567;48.276;14.242;2023-02-22T15:07:13;97929.09;;;15.93;58.87
39897;BME280;25567;48.276;14.242;2023-02-22T15:09:47;97925.56;;;16.03;58.74
39897;BME280;25567;48.276;14.242;2023-02-22T15:12:26;97925.72;;;16.22;58.18
39897;BME280;25567;48.276;14.242;2023-02-22T15:15:15;97930.38;;;16.46;57.85